Relevés horaires Semmerzake (Belgique)


Relevés horaires à Semmerzake - Mardi 20 Juill. 2021
Heure UTC1 Température [°C] Vent [km/h] Hum. [%] Pres.4 [hPa] Visi. [Km] Nébu. [octa] Préc.5 [mm] Cond.
2m. Res. Ros. Dir.2 Vit. Moy. Raf.3
23:00 17.3 17.3 13.6 NNO 1.9 -- 3.7 79 1022.1(0.9/3h) 14 -- -- --
22:00 18.3 18.3 13.4 NE 3.7 -- 5.6 73 1021.7(0.7/3h) 17 -- -- --
21:00 19.2 19.2 13.5 NNO 1.9 -- 5.6 70 1021.5(0.9/3h) 17 -- -- --
20:00 20.4 20.4 13.9 NNO 1.9 -- 5.6 66 1021.1(0.4/3h) 20 -- -- --
19:00 22.7 22.7 13.9 NNO 1.9 -- 5.6 58 1020.7(0.4/3h) 19 -- -- --
18:00 24.3 24.3 13.6 NNO 1.9 -- 7.4 51 1020.6(0.0/3h) 20 -- -- --
17:00 24.8 24.8 13.9 NNO 1.9 -- 5.6 51 1020.6(-0.2/3h) 20 -- -- --
16:00 24.9 24.9 13.9 ENE 3.7 -- 7.4 50 1020.3(-0.5/3h) 20 -- -- --
15:00 24.7 24.7 13.7 ENE 3.7 -- 7.4 50 1020.5(-0.5/3h) 18 -- -- --
14:00 25.0 25.0 14.1 NNO 1.9 -- 7.4 51 1020.7(-0.4/3h) 19 -- -- --
13:00 23.6 23.6 14.2 E 3.7 -- 7.4 56 1020.8(-0.4/3h) 15 -- -- --
12:00 23.5 23.5 14.6 NNE 3.7 -- 7.4 57 1021.1(-0.3/3h) 16 -- -- --
11:00 22.0 22.0 14.0 NE 3.7 -- 7.4 60 1021.2(-0.1/3h) 19 -- -- --
10:00 22.0 22.0 14.7 SE 3.7 -- 7.4 63 1021.3(0.0/3h) 16 -- -- --
09:00 20.8 20.8 13.8 NNO 1.9 -- 7.4 64 1021.5(0.5/3h) 17 -- -- --
08:00 19.2 19.2 13.3 E 3.7 -- 7.4 69 1021.5(0.7/3h) 17 -- -- --
07:00 17.9 17.9 13.1 ESE 3.7 -- 5.6 74 1021.3(0.7/3h) 12 -- -- --
06:00 16.2 16.2 12.6 NNO 1.9 -- 7.4 79 1021.1(0.3/3h) 13 -- -- --
05:00 15.2 15.2 12.5 E 3.7 -- 7.4 84 1020.7(0.1/3h) 13 -- -- --
04:00 14.6 14.6 12.7 NNO 1.9 -- 5.6 88 1020.7(0.0/3h) 12 -- -- --
03:00 15.2 15.2 13.1 ENE 3.7 -- 7.4 87 1020.7(0.1/3h) 13 -- -- --
02:00 15.7 15.7 12.8 ENE 3.7 -- 7.4 83 1020.7(0.0/3h) 17 -- -- --
01:00 16.5 16.5 13.9 NNO 1.9 -- 5.6 85 1020.7(0.0/3h) 15 -- -- --
00:00 17.1 17.1 14.3 NNO 3.7 -- 7.4 84 1020.7(0.2/3h) 15 -- -- --

1 Coordinated Universal Time. Actuellement il est 22:00 locale et 20:00 UTC.

2 Le vent souffle depuis la direction indiquée vers la direction oposée.

3 Les rafales max. sont disponible 40 min après l'heure du relevé.

4 Pour les stations d'altitude (plus de 600m) le géopotentiel du niveau le plus proche de la pression obligatoire est indiqué.

5 Les stations disposant d'un diffuseur peuvent indiquer "trace". Cela signifie que des précipitations ont touchés le sol mais que la quantité est inférieure à 0.1 mm.

Récapitulatif de la journée
Température [°C] Vent [km/h] Ensoleillement4 [h] Precipitations totale5 [mm] Pression [Hpa]
Min1 Max.2 Moy.3 Max. Min Max.
14.5 25.5 0 7.4 0 h 0 min 0 1020.3 1022.1

1 Température minimale relevée entre 18:00 UTC la veille et 18:00 UTC le jour donné.

2 Température maximale relevée entre 06:00 UTC le jour donné et 06:00 UTC le lendemain.

3 Vent moyen de la journée basé sur les relevés horaires.

4 Ensoleillement en heures relevé entre 06:00 UTC la veille et 06:00 UTC le jour donné.

5 Précipitations totales tombées entre 06:00 UTC la jour donné et 06:00 UTC le lendemain.

Graphiques horaires